sensor_id;sensor_type;location;lat;lon;timestamp;pressure;altitude;pressure_sealevel;temperature;humidity
47809;BME280;33573;38.790;-77.084;2023-05-25T00:01:08;101137.49;;;24.49;30.46
47809;BME280;33573;38.790;-77.084;2023-05-25T00:03:39;101134.81;;;24.37;30.62
47809;BME280;33573;38.790;-77.084;2023-05-25T00:06:08;101136.90;;;24.23;30.61
47809;BME280;33573;38.790;-77.084;2023-05-25T00:08:30;101131.67;;;24.59;30.49
47809;BME280;33573;38.790;-77.084;2023-05-25T00:10:55;101131.44;;;24.43;30.72
47809;BME280;33573;38.790;-77.084;2023-05-25T00:13:16;101134.53;;;24.27;30.92
47809;BME280;33573;38.790;-77.084;2023-05-25T00:15:42;101130.69;;;24.30;30.75
47809;BME280;33573;38.790;-77.084;2023-05-25T00:18:12;101134.35;;;24.33;31.04
47809;BME280;33573;38.790;-77.084;2023-05-25T00:20:42;101135.64;;;24.30;31.26
47809;BME280;33573;38.790;-77.084;2023-05-25T00:23:04;101137.09;;;24.19;31.56
47809;BME280;33573;38.790;-77.084;2023-05-25T00:25:29;101135.38;;;24.29;31.52
47809;BME280;33573;38.790;-77.084;2023-05-25T00:27:59;101134.66;;;25.04;31.05
47809;BME280;33573;38.790;-77.084;2023-05-25T00:30:20;101130.96;;;24.86;30.85
47809;BME280;33573;38.790;-77.084;2023-05-25T00:32:41;101129.57;;;24.68;31.43
47809;BME280;33573;38.790;-77.084;2023-05-25T00:35:06;101126.69;;;25.17;30.94
47809;BME280;33573;38.790;-77.084;2023-05-25T00:37:31;101126.15;;;25.08;31.24
47809;BME280;33573;38.790;-77.084;2023-05-25T00:40:02;101126.67;;;25.01;31.47
47809;BME280;33573;38.790;-77.084;2023-05-25T00:42:23;101128.46;;;24.95;31.63
47809;BME280;33573;38.790;-77.084;2023-05-25T00:44:48;101123.92;;;25.00;31.66
47809;BME280;33573;38.790;-77.084;2023-05-25T00:47:13;101123.76;;;25.06;31.54
47809;BME280;33573;38.790;-77.084;2023-05-25T00:49:43;101122.93;;;25.03;31.70
47809;BME280;33573;38.790;-77.084;2023-05-25T00:52:04;101124.96;;;24.73;32.03
47809;BME280;33573;38.790;-77.084;2023-05-25T00:54:34;101121.30;;;24.60;32.24
47809;BME280;33573;38.790;-77.084;2023-05-25T00:56:56;101125.56;;;24.37;32.36
47809;BME280;33573;38.790;-77.084;2023-05-25T00:59:27;101127.66;;;24.48;32.56
47809;BME280;33573;38.790;-77.084;2023-05-25T01:01:53;101127.16;;;24.74;32.29
47809;BME280;33573;38.790;-77.084;2023-05-25T01:04:14;101124.13;;;24.90;32.16
47809;BME280;33573;38.790;-77.084;2023-05-25T01:06:39;101125.50;;;24.46;32.82
47809;BME280;33573;38.790;-77.084;2023-05-25T01:09:04;101126.23;;;24.65;32.54
47809;BME280;33573;38.790;-77.084;2023-05-25T01:11:34;101124.01;;;24.77;32.49
47809;BME280;33573;38.790;-77.084;2023-05-25T01:13:53;101125.39;;;24.63;32.72
47809;BME280;33573;38.790;-77.084;2023-05-25T01:16:19;101125.86;;;24.79;32.58
47809;BME280;33573;38.790;-77.084;2023-05-25T01:18:44;101124.51;;;24.59;32.97
47809;BME280;33573;38.790;-77.084;2023-05-25T01:21:16;101121.14;;;24.58;32.94
47809;BME280;33573;38.790;-77.084;2023-05-25T01:23:36;101119.37;;;24.52;33.18
47809;BME280;33573;38.790;-77.084;2023-05-25T01:26:10;101124.14;;;24.73;32.82
47809;BME280;33573;38.790;-77.084;2023-05-25T01:28:36;101122.06;;;24.92;32.59
47809;BME280;33573;38.790;-77.084;2023-05-25T01:30:56;101123.85;;;24.74;32.57
47809;BME280;33573;38.790;-77.084;2023-05-25T01:33:17;101126.60;;;25.17;32.35
47809;BME280;33573;38.790;-77.084;2023-05-25T01:35:52;101128.55;;;25.30;32.33
47809;BME280;33573;38.790;-77.084;2023-05-25T01:38:09;101130.64;;;25.05;32.72
47809;BME280;33573;38.790;-77.084;2023-05-25T01:40:38;101128.21;;;25.07;32.71
47809;BME280;33573;38.790;-77.084;2023-05-25T01:42:59;101125.97;;;25.27;32.55
47809;BME280;33573;38.790;-77.084;2023-05-25T01:45:24;101123.37;;;25.11;32.78
47809;BME280;33573;38.790;-77.084;2023-05-25T01:48:02;101124.85;;;25.08;32.91
47809;BME280;33573;38.790;-77.084;2023-05-25T01:50:21;101122.41;;;25.15;32.85
47809;BME280;33573;38.790;-77.084;2023-05-25T01:52:52;101123.32;;;25.02;33.05
47809;BME280;33573;38.790;-77.084;2023-05-25T01:55:11;101129.30;;;25.05;33.05
47809;BME280;33573;38.790;-77.084;2023-05-25T01:57:42;101128.04;;;25.03;33.12
47809;BME280;33573;38.790;-77.084;2023-05-25T02:00:02;101127.22;;;25.07;33.18
47809;BME280;33573;38.790;-77.084;2023-05-25T02:02:27;101128.26;;;25.12;33.12
47809;BME280;33573;38.790;-77.084;2023-05-25T02:04:48;101129.38;;;25.17;33.06
47809;BME280;33573;38.790;-77.084;2023-05-25T02:07:13;101134.47;;;25.21;33.36
47809;BME280;33573;38.790;-77.084;2023-05-25T02:09:44;101133.43;;;25.19;33.30
47809;BME280;33573;38.790;-77.084;2023-05-25T02:12:09;101133.98;;;25.14;33.19
47809;BME280;33573;38.790;-77.084;2023-05-25T02:14:34;101131.70;;;25.03;33.41
47809;BME280;33573;38.790;-77.084;2023-05-25T02:16:59;101134.48;;;24.92;33.62
47809;BME280;33573;38.790;-77.084;2023-05-25T02:19:29;101131.41;;;24.88;33.69
47809;BME280;33573;38.790;-77.084;2023-05-25T02:21:45;101129.24;;;25.06;33.52
47809;BME280;33573;38.790;-77.084;2023-05-25T02:24:20;101128.30;;;25.01;33.56
47809;BME280;33573;38.790;-77.084;2023-05-25T02:26:40;101128.31;;;24.74;33.88
47809;BME280;33573;38.790;-77.084;2023-05-25T02:29:06;101129.51;;;24.66;33.93
47809;BME280;33573;38.790;-77.084;2023-05-25T02:31:32;101127.18;;;24.79;33.91
47809;BME280;33573;38.790;-77.084;2023-05-25T02:34:02;101121.30;;;24.98;33.68
47809;BME280;33573;38.790;-77.084;2023-05-25T02:36:17;101119.21;;;24.56;33.92
47809;BME280;33573;38.790;-77.084;2023-05-25T02:38:42;101118.27;;;24.36;34.49
47809;BME280;33573;38.790;-77.084;2023-05-25T02:41:17;101120.01;;;24.58;34.24
47809;BME280;33573;38.790;-77.084;2023-05-25T02:43:39;101121.51;;;24.78;34.29
47809;BME280;33573;38.790;-77.084;2023-05-25T02:46:05;101119.25;;;24.66;34.17
47809;BME280;33573;38.790;-77.084;2023-05-25T02:48:25;101118.28;;;24.48;34.37
47809;BME280;33573;38.790;-77.084;2023-05-25T02:50:56;101122.01;;;24.48;34.42
47809;BME280;33573;38.790;-77.084;2023-05-25T02:53:21;101126.26;;;24.55;34.37
47809;BME280;33573;38.790;-77.084;2023-05-25T02:55:41;101124.35;;;24.40;34.66
47809;BME280;33573;38.790;-77.084;2023-05-25T02:58:07;101127.07;;;24.36;34.53
47809;BME280;33573;38.790;-77.084;2023-05-25T03:00:37;101126.37;;;24.64;34.52
47809;BME280;33573;38.790;-77.084;2023-05-25T03:02:58;101129.33;;;24.38;34.49
47809;BME280;33573;38.790;-77.084;2023-05-25T03:05:28;101131.17;;;24.26;34.85
47809;BME280;33573;38.790;-77.084;2023-05-25T03:07:53;101130.22;;;23.92;35.33
47809;BME280;33573;38.790;-77.084;2023-05-25T03:10:23;101132.89;;;23.83;35.46
47809;BME280;33573;38.790;-77.084;2023-05-25T03:12:44;101135.11;;;23.80;35.60
47809;BME280;33573;38.790;-77.084;2023-05-25T03:15:05;101134.46;;;23.75;35.64
47809;BME280;33573;38.790;-77.084;2023-05-25T03:17:39;101135.81;;;24.01;35.65
47809;BME280;33573;38.790;-77.084;2023-05-25T03:20:00;101138.91;;;23.99;35.76
47809;BME280;33573;38.790;-77.084;2023-05-25T03:22:26;101140.68;;;23.93;35.74
47809;BME280;33573;38.790;-77.084;2023-05-25T03:24:55;101143.65;;;24.17;35.81
47809;BME280;33573;38.790;-77.084;2023-05-25T03:27:12;101146.87;;;23.56;36.00
47809;BME280;33573;38.790;-77.084;2023-05-25T03:29:42;101148.25;;;24.15;35.82
47809;BME280;33573;38.790;-77.084;2023-05-25T03:32:12;101149.42;;;24.17;35.81
47809;BME280;33573;38.790;-77.084;2023-05-25T03:34:33;101148.63;;;23.73;35.72
47809;BME280;33573;38.790;-77.084;2023-05-25T03:36:58;101146.36;;;24.08;35.61
47809;BME280;33573;38.790;-77.084;2023-05-25T03:39:28;101144.30;;;23.65;35.87
47809;BME280;33573;38.790;-77.084;2023-05-25T03:41:44;101146.34;;;23.73;35.74
47809;BME280;33573;38.790;-77.084;2023-05-25T03:44:15;101148.93;;;23.92;35.53
47809;BME280;33573;38.790;-77.084;2023-05-25T03:46:36;101150.28;;;24.29;35.75
47809;BME280;33573;38.790;-77.084;2023-05-25T03:49:01;101154.31;;;23.77;35.86
47809;BME280;33573;38.790;-77.084;2023-05-25T03:51:26;101161.16;;;23.56;36.17
47809;BME280;33573;38.790;-77.084;2023-05-25T03:54:01;101170.93;;;23.81;35.88
47809;BME280;33573;38.790;-77.084;2023-05-25T03:56:17;101193.59;;;24.02;35.59
47809;BME280;33573;38.790;-77.084;2023-05-25T03:58:48;101225.56;;;24.05;34.97
47809;BME280;33573;38.790;-77.084;2023-05-25T04:01:08;101235.44;;;24.07;35.15
47809;BME280;33573;38.790;-77.084;2023-05-25T04:03:39;101237.30;;;24.55;35.16
47809;BME280;33573;38.790;-77.084;2023-05-25T04:06:04;101236.74;;;24.53;34.72
47809;BME280;33573;38.790;-77.084;2023-05-25T04:08:33;101245.38;;;24.58;34.61
47809;BME280;33573;38.790;-77.084;2023-05-25T04:10:55;101246.72;;;24.15;35.05
47809;BME280;33573;38.790;-77.084;2023-05-25T04:13:21;101241.27;;;24.08;35.21
47809;BME280;33573;38.790;-77.084;2023-05-25T04:15:50;101242.08;;;23.99;35.70
47809;BME280;33573;38.790;-77.084;2023-05-25T04:18:06;101245.31;;;24.64;34.94
47809;BME280;33573;38.790;-77.084;2023-05-25T04:20:37;101248.11;;;24.13;34.90
47809;BME280;33573;38.790;-77.084;2023-05-25T04:22:57;101240.31;;;24.25;35.31
47809;BME280;33573;38.790;-77.084;2023-05-25T04:25:27;101237.81;;;24.23;35.39
47809;BME280;33573;38.790;-77.084;2023-05-25T04:27:53;101236.73;;;24.10;35.26
47809;BME280;33573;38.790;-77.084;2023-05-25T04:30:14;101242.58;;;24.46;35.16
47809;BME280;33573;38.790;-77.084;2023-05-25T04:32:43;101246.82;;;24.62;34.89
47809;BME280;33573;38.790;-77.084;2023-05-25T04:35:09;101253.56;;;24.59;34.89
47809;BME280;33573;38.790;-77.084;2023-05-25T04:37:29;101251.09;;;23.99;35.39
47809;BME280;33573;38.790;-77.084;2023-05-25T04:40:00;101251.20;;;23.85;35.19
47809;BME280;33573;38.790;-77.084;2023-05-25T04:42:26;101253.14;;;23.90;35.54
47809;BME280;33573;38.790;-77.084;2023-05-25T04:44:55;101257.02;;;23.94;35.29
47809;BME280;33573;38.790;-77.084;2023-05-25T04:47:17;101257.66;;;23.60;35.46
47809;BME280;33573;38.790;-77.084;2023-05-25T04:49:42;101259.89;;;24.28;35.13
47809;BME280;33573;38.790;-77.084;2023-05-25T04:52:02;101263.51;;;23.73;35.30
47809;BME280;33573;38.790;-77.084;2023-05-25T04:54:33;101269.05;;;24.51;34.87
47809;BME280;33573;38.790;-77.084;2023-05-25T04:56:58;101262.23;;;24.39;34.96
47809;BME280;33573;38.790;-77.084;2023-05-25T04:59:28;101265.01;;;24.41;34.69
47809;BME280;33573;38.790;-77.084;2023-05-25T05:01:49;101261.42;;;23.95;34.48
47809;BME280;33573;38.790;-77.084;2023-05-25T05:04:14;101263.27;;;24.21;34.50
47809;BME280;33573;38.790;-77.084;2023-05-25T05:06:43;101267.86;;;24.62;34.27
47809;BME280;33573;38.790;-77.084;2023-05-25T05:09:05;101270.03;;;24.45;34.17
47809;BME280;33573;38.790;-77.084;2023-05-25T05:11:26;101265.42;;;24.69;34.18
47809;BME280;33573;38.790;-77.084;2023-05-25T05:14:00;101270.34;;;24.54;34.39
47809;BME280;33573;38.790;-77.084;2023-05-25T05:16:16;101266.93;;;24.55;34.32
47809;BME280;33573;38.790;-77.084;2023-05-25T05:18:46;101271.18;;;24.25;33.97
47809;BME280;33573;38.790;-77.084;2023-05-25T05:21:15;101273.42;;;24.17;34.07
47809;BME280;33573;38.790;-77.084;2023-05-25T05:23:37;101274.11;;;24.23;33.99
47809;BME280;33573;38.790;-77.084;2023-05-25T05:26:02;101272.12;;;24.32;34.09
47809;BME280;33573;38.790;-77.084;2023-05-25T05:28:32;101273.54;;;24.32;34.12
47809;BME280;33573;38.790;-77.084;2023-05-25T05:30:52;101274.13;;;24.16;33.99
47809;BME280;33573;38.790;-77.084;2023-05-25T05:33:13;101280.21;;;24.69;33.84
47809;BME280;33573;38.790;-77.084;2023-05-25T05:35:48;101272.58;;;24.58;34.00
47809;BME280;33573;38.790;-77.084;2023-05-25T05:38:09;101282.02;;;24.20;33.81
47809;BME280;33573;38.790;-77.084;2023-05-25T05:40:34;101285.20;;;24.48;33.75
47809;BME280;33573;38.790;-77.084;2023-05-25T05:43:00;101287.96;;;24.30;33.92
47809;BME280;33573;38.790;-77.084;2023-05-25T05:45:25;101291.68;;;24.25;33.63
47809;BME280;33573;38.790;-77.084;2023-05-25T05:47:50;101296.08;;;24.15;33.60
47809;BME280;33573;38.790;-77.084;2023-05-25T05:50:20;101301.13;;;24.70;33.54
47809;BME280;33573;38.790;-77.084;2023-05-25T05:52:41;101306.62;;;24.73;33.43
47809;BME280;33573;38.790;-77.084;2023-05-25T05:55:07;101314.20;;;24.45;33.24
47809;BME280;33573;38.790;-77.084;2023-05-25T05:57:35;101319.09;;;24.25;33.65
47809;BME280;33573;38.790;-77.084;2023-05-25T05:59:57;101319.04;;;24.55;33.49
47809;BME280;33573;38.790;-77.084;2023-05-25T06:02:17;101325.88;;;24.18;33.19
47809;BME280;33573;38.790;-77.084;2023-05-25T06:04:47;101339.08;;;24.14;33.15
47809;BME280;33573;38.790;-77.084;2023-05-25T06:07:13;101329.74;;;24.17;33.09
47809;BME280;33573;38.790;-77.084;2023-05-25T06:09:38;101334.25;;;24.56;33.07
47809;BME280;33573;38.790;-77.084;2023-05-25T06:11:58;101335.10;;;24.23;32.83
47809;BME280;33573;38.790;-77.084;2023-05-25T06:14:29;101336.43;;;24.37;32.90
47809;BME280;33573;38.790;-77.084;2023-05-25T06:16:54;101338.90;;;24.57;32.76
47809;BME280;33573;38.790;-77.084;2023-05-25T06:19:20;101345.38;;;24.25;32.56
47809;BME280;33573;38.790;-77.084;2023-05-25T06:21:45;101349.04;;;24.48;32.97
47809;BME280;33573;38.790;-77.084;2023-05-25T06:24:06;101353.26;;;24.59;32.63
47809;BME280;33573;38.790;-77.084;2023-05-25T06:26:40;101364.26;;;24.20;32.50
47809;BME280;33573;38.790;-77.084;2023-05-25T06:28:56;101361.24;;;24.08;32.95
47809;BME280;33573;38.790;-77.084;2023-05-25T06:31:27;101370.99;;;24.53;32.66
47809;BME280;33573;38.790;-77.084;2023-05-25T06:33:56;101370.82;;;24.27;32.40
47809;BME280;33573;38.790;-77.084;2023-05-25T06:36:17;101380.25;;;23.97;32.22
47809;BME280;33573;38.790;-77.084;2023-05-25T06:38:43;101382.26;;;24.55;31.76
47809;BME280;33573;38.790;-77.084;2023-05-25T06:41:13;101389.26;;;24.16;31.83
47809;BME280;33573;38.790;-77.084;2023-05-25T06:43:34;101387.32;;;24.02;31.87
47809;BME280;33573;38.790;-77.084;2023-05-25T06:45:59;101383.78;;;24.02;31.63
47809;BME280;33573;38.790;-77.084;2023-05-25T06:48:29;101381.91;;;24.05;31.58
47809;BME280;33573;38.790;-77.084;2023-05-25T06:50:51;101379.99;;;23.93;31.73
47809;BME280;33573;38.790;-77.084;2023-05-25T06:53:09;101385.02;;;24.08;31.51
47809;BME280;33573;38.790;-77.084;2023-05-25T06:55:44;101385.52;;;23.93;31.25
47809;BME280;33573;38.790;-77.084;2023-05-25T06:58:05;101388.32;;;23.96;31.21
47809;BME280;33573;38.790;-77.084;2023-05-25T07:00:25;101392.58;;;23.95;31.45
47809;BME280;33573;38.790;-77.084;2023-05-25T07:02:50;101394.31;;;23.82;31.23
47809;BME280;33573;38.790;-77.084;2023-05-25T07:05:21;101395.95;;;24.05;31.24
47809;BME280;33573;38.790;-77.084;2023-05-25T07:07:46;101401.00;;;24.05;31.27
47809;BME280;33573;38.790;-77.084;2023-05-25T07:10:16;101403.31;;;23.85;31.41
47809;BME280;33573;38.790;-77.084;2023-05-25T07:12:37;101402.11;;;24.09;30.82
47809;BME280;33573;38.790;-77.084;2023-05-25T07:15:03;101405.62;;;24.13;31.02
47809;BME280;33573;38.790;-77.084;2023-05-25T07:17:32;101411.11;;;23.90;31.12
47809;BME280;33573;38.790;-77.084;2023-05-25T07:19:53;101423.55;;;24.04;30.80
47809;BME280;33573;38.790;-77.084;2023-05-25T07:22:18;101421.81;;;23.62;31.12
47809;BME280;33573;38.790;-77.084;2023-05-25T07:24:44;101426.21;;;23.86;30.90
47809;BME280;33573;38.790;-77.084;2023-05-25T07:27:09;101434.28;;;23.97;30.84
47809;BME280;33573;38.790;-77.084;2023-05-25T07:29:34;101434.89;;;24.02;30.77
47809;BME280;33573;38.790;-77.084;2023-05-25T07:32:04;101438.48;;;23.94;30.61
47809;BME280;33573;38.790;-77.084;2023-05-25T07:34:25;101438.51;;;23.61;30.81
47809;BME280;33573;38.790;-77.084;2023-05-25T07:36:50;101441.25;;;23.94;30.82
47809;BME280;33573;38.790;-77.084;2023-05-25T07:39:11;101443.16;;;24.04;30.77
47809;BME280;33573;38.790;-77.084;2023-05-25T07:41:41;101445.93;;;23.90;30.70
47809;BME280;33573;38.790;-77.084;2023-05-25T07:44:07;101438.50;;;23.65;30.58
47809;BME280;33573;38.790;-77.084;2023-05-25T07:46:27;101445.45;;;23.85;30.49
47809;BME280;33573;38.790;-77.084;2023-05-25T07:48:52;101444.39;;;23.78;30.62
47809;BME280;33573;38.790;-77.084;2023-05-25T07:51:23;101445.67;;;23.65;30.47
47809;BME280;33573;38.790;-77.084;2023-05-25T07:53:53;101442.94;;;23.82;30.64
47809;BME280;33573;38.790;-77.084;2023-05-25T07:56:14;101449.52;;;23.90;30.20
47809;BME280;33573;38.790;-77.084;2023-05-25T07:58:34;101448.73;;;23.68;30.42
47809;BME280;33573;38.790;-77.084;2023-05-25T08:01:09;101445.89;;;23.72;30.44
47809;BME280;33573;38.790;-77.084;2023-05-25T08:03:25;101449.37;;;23.65;30.51
47809;BME280;33573;38.790;-77.084;2023-05-25T08:05:56;101452.20;;;23.54;30.46
47809;BME280;33573;38.790;-77.084;2023-05-25T08:08:25;101454.73;;;23.33;30.45
47809;BME280;33573;38.790;-77.084;2023-05-25T08:10:47;101455.74;;;23.88;30.40
47809;BME280;33573;38.790;-77.084;2023-05-25T08:13:07;101458.86;;;23.63;30.46
47809;BME280;33573;38.790;-77.084;2023-05-25T08:15:41;101468.48;;;23.46;30.46
47809;BME280;33573;38.790;-77.084;2023-05-25T08:18:02;101467.80;;;23.54;30.47
47809;BME280;33573;38.790;-77.084;2023-05-25T08:20:23;101472.79;;;23.49;30.38
47809;BME280;33573;38.790;-77.084;2023-05-25T08:22:53;101472.81;;;23.35;30.55
47809;BME280;33573;38.790;-77.084;2023-05-25T08:25:18;101474.40;;;23.62;30.19
47809;BME280;33573;38.790;-77.084;2023-05-25T08:27:44;101475.83;;;23.73;30.31
47809;BME280;33573;38.790;-77.084;2023-05-25T08:30:13;101478.15;;;24.01;30.10
47809;BME280;33573;38.790;-77.084;2023-05-25T08:32:34;101483.05;;;23.52;30.05
47809;BME280;33573;38.790;-77.084;2023-05-25T08:35:00;101493.45;;;23.65;30.05
47809;BME280;33573;38.790;-77.084;2023-05-25T08:37:30;101494.06;;;23.47;30.11
47809;BME280;33573;38.790;-77.084;2023-05-25T08:39:51;101498.11;;;23.53;29.87
47809;BME280;33573;38.790;-77.084;2023-05-25T08:42:16;101494.95;;;23.41;29.84
47809;BME280;33573;38.790;-77.084;2023-05-25T08:44:45;101498.38;;;23.79;29.53
47809;BME280;33573;38.790;-77.084;2023-05-25T08:47:07;101502.59;;;23.50;29.39
47809;BME280;33573;38.790;-77.084;2023-05-25T08:49:34;101502.08;;;23.48;29.63
47809;BME280;33573;38.790;-77.084;2023-05-25T08:51:53;101507.21;;;23.71;29.25
47809;BME280;33573;38.790;-77.084;2023-05-25T08:54:28;101514.56;;;23.52;29.40
47809;BME280;33573;38.790;-77.084;2023-05-25T08:56:50;101515.46;;;23.33;29.25
47809;BME280;33573;38.790;-77.084;2023-05-25T08:59:14;101519.16;;;23.47;29.04
47809;BME280;33573;38.790;-77.084;2023-05-25T09:01:42;101522.31;;;23.45;29.41
47809;BME280;33573;38.790;-77.084;2023-05-25T09:04:08;101526.48;;;23.30;29.02
47809;BME280;33573;38.790;-77.084;2023-05-25T09:06:29;101533.68;;;23.19;29.09
47809;BME280;33573;38.790;-77.084;2023-05-25T09:08:54;101545.22;;;23.20;29.01
47809;BME280;33573;38.790;-77.084;2023-05-25T09:11:20;101542.93;;;23.38;29.13
47809;BME280;33573;38.790;-77.084;2023-05-25T09:13:50;101539.66;;;23.50;28.88
47809;BME280;33573;38.790;-77.084;2023-05-25T09:16:11;101540.69;;;23.49;28.94
47809;BME280;33573;38.790;-77.084;2023-05-25T09:18:31;101542.66;;;23.28;28.77
47809;BME280;33573;38.790;-77.084;2023-05-25T09:21:02;101543.83;;;23.44;28.58
47809;BME280;33573;38.790;-77.084;2023-05-25T09:23:27;101549.87;;;23.62;28.02
47809;BME280;33573;38.790;-77.084;2023-05-25T09:25:53;101551.67;;;23.41;28.53
47809;BME280;33573;38.790;-77.084;2023-05-25T09:28:18;101554.37;;;23.18;28.24
47809;BME280;33573;38.790;-77.084;2023-05-25T09:30:43;101555.87;;;23.13;28.37
47809;BME280;33573;38.790;-77.084;2023-05-25T09:33:09;101561.96;;;23.30;28.36
47809;BME280;33573;38.790;-77.084;2023-05-25T09:35:39;101571.13;;;23.09;28.05
47809;BME280;33573;38.790;-77.084;2023-05-25T09:37:55;101577.76;;;23.09;28.03
47809;BME280;33573;38.790;-77.084;2023-05-25T09:40:25;101585.11;;;23.06;27.88
47809;BME280;33573;38.790;-77.084;2023-05-25T09:42:57;101589.46;;;23.43;27.83
47809;BME280;33573;38.790;-77.084;2023-05-25T09:45:16;101590.25;;;22.85;27.84
47809;BME280;33573;38.790;-77.084;2023-05-25T09:47:41;101599.36;;;23.06;27.77
47809;BME280;33573;38.790;-77.084;2023-05-25T09:50:11;101602.04;;;22.87;27.80
47809;BME280;33573;38.790;-77.084;2023-05-25T09:52:32;101606.98;;;23.24;27.84
47809;BME280;33573;38.790;-77.084;2023-05-25T09:54:57;101606.15;;;23.14;28.27
47809;BME280;33573;38.790;-77.084;2023-05-25T09:57:27;101606.80;;;23.22;27.97
47809;BME280;33573;38.790;-77.084;2023-05-25T09:59:48;101610.46;;;23.24;27.90
47809;BME280;33573;38.790;-77.084;2023-05-25T10:02:14;101618.18;;;23.28;27.83
47809;BME280;33573;38.790;-77.084;2023-05-25T10:04:43;101619.69;;;23.46;27.74
47809;BME280;33573;38.790;-77.084;2023-05-25T10:07:05;101623.48;;;22.91;27.73
47809;BME280;33573;38.790;-77.084;2023-05-25T10:09:30;101627.07;;;23.33;27.56
47809;BME280;33573;38.790;-77.084;2023-05-25T10:11:59;101631.82;;;23.01;27.70
47809;BME280;33573;38.790;-77.084;2023-05-25T10:14:25;101640.95;;;23.02;27.58
47809;BME280;33573;38.790;-77.084;2023-05-25T10:16:50;101651.69;;;23.06;27.48
47809;BME280;33573;38.790;-77.084;2023-05-25T10:19:15;101662.25;;;23.28;27.35
47809;BME280;33573;38.790;-77.084;2023-05-25T10:21:37;101663.88;;;23.14;27.31
47809;BME280;33573;38.790;-77.084;2023-05-25T10:24:03;101666.83;;;23.30;27.78
47809;BME280;33573;38.790;-77.084;2023-05-25T10:26:33;101670.87;;;23.11;27.36
47809;BME280;33573;38.790;-77.084;2023-05-25T10:28:58;101675.69;;;23.04;27.05
47809;BME280;33573;38.790;-77.084;2023-05-25T10:31:19;101684.53;;;22.61;27.34
47809;BME280;33573;38.790;-77.084;2023-05-25T10:33:48;101688.90;;;22.66;27.15
47809;BME280;33573;38.790;-77.084;2023-05-25T10:36:10;101694.22;;;22.92;26.86
47809;BME280;33573;38.790;-77.084;2023-05-25T10:38:35;101699.37;;;22.76;27.02
47809;BME280;33573;38.790;-77.084;2023-05-25T10:41:04;101698.98;;;22.94;27.32
47809;BME280;33573;38.790;-77.084;2023-05-25T10:43:26;101697.95;;;22.67;27.30
47809;BME280;33573;38.790;-77.084;2023-05-25T10:45:46;101703.20;;;23.00;27.05
47809;BME280;33573;38.790;-77.084;2023-05-25T10:48:20;101711.06;;;23.04;27.01
47809;BME280;33573;38.790;-77.084;2023-05-25T10:50:37;101716.55;;;22.96;26.87
47809;BME280;33573;38.790;-77.084;2023-05-25T10:53:11;101718.15;;;23.02;26.64
47809;BME280;33573;38.790;-77.084;2023-05-25T10:55:42;101726.95;;;22.91;26.78
47809;BME280;33573;38.790;-77.084;2023-05-25T10:58:08;101732.35;;;22.74;26.99
47809;BME280;33573;38.790;-77.084;2023-05-25T11:00:23;101736.25;;;22.89;26.77
47809;BME280;33573;38.790;-77.084;2023-05-25T11:02:53;101744.94;;;22.92;26.79
47809;BME280;33573;38.790;-77.084;2023-05-25T11:05:30;101745.88;;;22.81;26.70
47809;BME280;33573;38.790;-77.084;2023-05-25T11:10:00;101754.99;;;22.69;26.37
47809;BME280;33573;38.790;-77.084;2023-05-25T11:12:26;101756.18;;;22.75;26.75
47809;BME280;33573;38.790;-77.084;2023-05-25T11:15:10;101757.81;;;22.22;27.24
47809;BME280;33573;38.790;-77.084;2023-05-25T11:17:25;101763.93;;;22.59;26.60
47809;BME280;33573;38.790;-77.084;2023-05-25T11:19:48;101762.99;;;22.46;26.42
47809;BME280;33573;38.790;-77.084;2023-05-25T11:22:14;101761.62;;;22.60;26.47
47809;BME280;33573;38.790;-77.084;2023-05-25T11:24:32;101762.45;;;22.74;26.43
47809;BME280;33573;38.790;-77.084;2023-05-25T11:26:59;101764.59;;;23.04;26.38
47809;BME280;33573;38.790;-77.084;2023-05-25T11:29:31;101758.95;;;22.52;26.46
47809;BME280;33573;38.790;-77.084;2023-05-25T11:31:58;101765.17;;;22.22;26.62
47809;BME280;33573;38.790;-77.084;2023-05-25T11:34:14;101765.96;;;22.75;26.37
47809;BME280;33573;38.790;-77.084;2023-05-25T11:36:44;101767.31;;;22.80;26.52
47809;BME280;33573;38.790;-77.084;2023-05-25T11:39:14;101771.65;;;22.52;26.45
47809;BME280;33573;38.790;-77.084;2023-05-25T11:41:36;101774.30;;;22.19;26.72
47809;BME280;33573;38.790;-77.084;2023-05-25T11:44:01;101779.18;;;22.21;26.31
47809;BME280;33573;38.790;-77.084;2023-05-25T11:46:21;101779.60;;;22.74;26.52
47809;BME280;33573;38.790;-77.084;2023-05-25T11:48:51;101784.45;;;22.74;26.78
47809;BME280;33573;38.790;-77.084;2023-05-25T11:51:12;101787.75;;;22.61;26.55
47809;BME280;33573;38.790;-77.084;2023-05-25T11:53:41;101789.34;;;22.82;27.15
47809;BME280;33573;38.790;-77.084;2023-05-25T11:56:02;101796.76;;;22.71;26.39
47809;BME280;33573;38.790;-77.084;2023-05-25T11:58:32;101793.72;;;22.62;26.30
47809;BME280;33573;38.790;-77.084;2023-05-25T12:00:53;101794.21;;;22.56;26.11
47809;BME280;33573;38.790;-77.084;2023-05-25T12:03:28;101791.83;;;22.83;26.45
47809;BME280;33573;38.790;-77.084;2023-05-25T12:05:44;101789.99;;;22.68;26.24
47809;BME280;33573;38.790;-77.084;2023-05-25T12:08:09;101786.18;;;22.85;26.36
47809;BME280;33573;38.790;-77.084;2023-05-25T12:13:01;101785.05;;;22.76;26.64
47809;BME280;33573;38.790;-77.084;2023-05-25T12:15:26;101786.40;;;22.65;26.02
47809;BME280;33573;38.790;-77.084;2023-05-25T12:17:52;101793.19;;;22.45;26.58
47809;BME280;33573;38.790;-77.084;2023-05-25T12:20:17;101800.46;;;22.65;26.43
47809;BME280;33573;38.790;-77.084;2023-05-25T12:22:43;101800.07;;;22.74;26.25
47809;BME280;33573;38.790;-77.084;2023-05-25T12:25:09;101806.06;;;22.76;26.29